Nearby METAR Reports

 

NZAA - Auckland Intl Ar, New Zealand
Distance from station: SW 18km
Updated: 30/05/2020 17:00
Clear
Clear
 Wind from ESE
Wind: ESE 13 km/h
Temperature: 16°C
Dew Point: 13°C
Humidity: 83%
Barometer: 1021 hPa
Clouds: Clear
Visibility: 10 km
2020/05/30 05:00 NZAA 300500Z AUTO 11007KT 9999 NCD 16/13 Q1021 NOSIG
NZWN - Wellington Intl, New Zealand
Distance from station: S 493km
Updated: 30/05/2020 17:00
Clear
Clear
 Wind from SSE
Wind: SSE 22 km/h
Temperature: 12°C
Dew Point: 9°C
Humidity: 82%
Barometer: 1027 hPa
Clouds: Clear
Visibility: 10 km
2020/05/30 05:00 NZWN 300500Z AUTO 15012KT 9999 NCD 12/09 Q1027 NOSIG
 
NZCH - Christchurch Int, New Zealand
Distance from station: SSW 759km
Updated: 30/05/2020 17:00
Clear
Clear
 Wind from ENE
Wind: ENE 13 km/h
Temperature: 10°C
Wind Chill: 8°C
Dew Point: 8°C
Humidity: 88%
Barometer: 1027 hPa
Clouds: Clear
Visibility: 10 km
2020/05/30 05:00 NZCH 300500Z AUTO 07007KT 9999 NCD 10/08 Q1027 NOSIG
YSNF - Norfolk Island A, Australia
Distance from station: NW 1091km
Updated: 30/05/2020 17:35
Overcast
Overcast
 Wind from SE
Wind: SE 20 km/h
Temperature: 18°C
Dew Point: 16°C
Humidity: 88%
Barometer: 1017 hPa
Clouds: Overcast
Visibility: 10 km
Cloud details: Partly cloudy 335 m
Partly cloudy 671 m
Overcast 884 m
2020/05/30 05:35 YSNF 300535Z AUTO 14011KT 9999 // SCT011 SCT022 OVC029 18/16 Q1017